sensor_id;sensor_type;location;lat;lon;timestamp;temperature;humidity
49829;DHT22;35723;51.194;5.112;2023-04-24T00:01:43;12.20;99.90
49829;DHT22;35723;51.194;5.112;2023-04-24T00:04:09;12.10;99.90
49829;DHT22;35723;51.194;5.112;2023-04-24T00:06:37;12.00;99.90
49829;DHT22;35723;51.194;5.112;2023-04-24T00:09:03;12.00;99.90
49829;DHT22;35723;51.194;5.112;2023-04-24T00:11:30;12.00;99.90
49829;DHT22;35723;51.194;5.112;2023-04-24T00:13:56;11.90;99.90
49829;DHT22;35723;51.194;5.112;2023-04-24T00:16:23;11.80;99.90
49829;DHT22;35723;51.194;5.112;2023-04-24T00:18:49;11.80;99.90
49829;DHT22;35723;51.194;5.112;2023-04-24T00:21:15;11.90;99.90
49829;DHT22;35723;51.194;5.112;2023-04-24T00:23:43;12.00;99.90
49829;DHT22;35723;51.194;5.112;2023-04-24T00:26:09;11.90;99.90
49829;DHT22;35723;51.194;5.112;2023-04-24T00:28:34;11.90;99.90
49829;DHT22;35723;51.194;5.112;2023-04-24T00:31:00;11.80;99.90
49829;DHT22;35723;51.194;5.112;2023-04-24T00:33:26;11.80;99.90
49829;DHT22;35723;51.194;5.112;2023-04-24T00:35:51;11.70;99.90
49829;DHT22;35723;51.194;5.112;2023-04-24T00:38:18;11.60;99.90
49829;DHT22;35723;51.194;5.112;2023-04-24T00:40:43;11.60;99.90
49829;DHT22;35723;51.194;5.112;2023-04-24T00:43:09;11.70;99.90
49829;DHT22;35723;51.194;5.112;2023-04-24T00:45:35;11.50;99.90
49829;DHT22;35723;51.194;5.112;2023-04-24T00:48:01;11.50;99.90
49829;DHT22;35723;51.194;5.112;2023-04-24T00:50:28;11.50;99.90
49829;DHT22;35723;51.194;5.112;2023-04-24T00:52:54;11.60;99.90
49829;DHT22;35723;51.194;5.112;2023-04-24T00:55:20;11.60;99.90
49829;DHT22;35723;51.194;5.112;2023-04-24T00:57:46;11.70;99.90
49829;DHT22;35723;51.194;5.112;2023-04-24T01:00:12;11.80;99.90
49829;DHT22;35723;51.194;5.112;2023-04-24T01:02:43;11.70;99.90
49829;DHT22;35723;51.194;5.112;2023-04-24T01:05:14;11.70;99.90
49829;DHT22;35723;51.194;5.112;2023-04-24T01:07:41;11.80;99.90
49829;DHT22;35723;51.194;5.112;2023-04-24T01:10:09;11.80;99.90
49829;DHT22;35723;51.194;5.112;2023-04-24T01:12:35;11.90;99.90
49829;DHT22;35723;51.194;5.112;2023-04-24T01:15:03;11.90;99.90
49829;DHT22;35723;51.194;5.112;2023-04-24T01:17:29;11.90;99.90
49829;DHT22;35723;51.194;5.112;2023-04-24T01:19:55;11.90;99.90
49829;DHT22;35723;51.194;5.112;2023-04-24T01:22:22;11.90;99.90
49829;DHT22;35723;51.194;5.112;2023-04-24T01:24:48;11.90;99.90
49829;DHT22;35723;51.194;5.112;2023-04-24T01:27:14;11.80;99.90
49829;DHT22;35723;51.194;5.112;2023-04-24T01:29:40;11.90;99.90
49829;DHT22;35723;51.194;5.112;2023-04-24T01:32:06;11.90;99.90
49829;DHT22;35723;51.194;5.112;2023-04-24T01:34:32;11.90;99.90
49829;DHT22;35723;51.194;5.112;2023-04-24T01:36:58;11.90;99.90
49829;DHT22;35723;51.194;5.112;2023-04-24T01:39:24;12.00;99.90
49829;DHT22;35723;51.194;5.112;2023-04-24T01:41:51;11.90;99.90
49829;DHT22;35723;51.194;5.112;2023-04-24T01:44:18;11.70;99.90
49829;DHT22;35723;51.194;5.112;2023-04-24T01:46:44;11.70;99.90
49829;DHT22;35723;51.194;5.112;2023-04-24T01:49:10;11.70;99.90
49829;DHT22;35723;51.194;5.112;2023-04-24T01:51:36;11.80;99.90
49829;DHT22;35723;51.194;5.112;2023-04-24T01:54:01;11.80;99.90
49829;DHT22;35723;51.194;5.112;2023-04-24T01:56:29;11.80;99.90
49829;DHT22;35723;51.194;5.112;2023-04-24T01:58:55;11.80;99.90
49829;DHT22;35723;51.194;5.112;2023-04-24T02:01:23;11.80;99.90
49829;DHT22;35723;51.194;5.112;2023-04-24T02:03:49;11.90;99.90
49829;DHT22;35723;51.194;5.112;2023-04-24T02:06:15;11.90;99.90
49829;DHT22;35723;51.194;5.112;2023-04-24T02:08:40;11.90;99.90
49829;DHT22;35723;51.194;5.112;2023-04-24T02:11:06;11.90;99.90
49829;DHT22;35723;51.194;5.112;2023-04-24T02:13:33;11.80;99.90
49829;DHT22;35723;51.194;5.112;2023-04-24T02:15:59;11.80;99.90
49829;DHT22;35723;51.194;5.112;2023-04-24T02:18:24;11.90;99.90
49829;DHT22;35723;51.194;5.112;2023-04-24T02:20:50;11.90;99.90
49829;DHT22;35723;51.194;5.112;2023-04-24T02:23:16;11.90;99.90
49829;DHT22;35723;51.194;5.112;2023-04-24T02:25:41;11.90;99.90
49829;DHT22;35723;51.194;5.112;2023-04-24T02:28:07;11.90;99.90
49829;DHT22;35723;51.194;5.112;2023-04-24T02:30:33;11.80;99.90
49829;DHT22;35723;51.194;5.112;2023-04-24T02:32:58;11.80;99.90
49829;DHT22;35723;51.194;5.112;2023-04-24T02:35:24;11.80;99.90
49829;DHT22;35723;51.194;5.112;2023-04-24T02:37:49;11.80;99.90
49829;DHT22;35723;51.194;5.112;2023-04-24T02:40:15;11.80;99.90
49829;DHT22;35723;51.194;5.112;2023-04-24T02:42:41;11.80;99.90
49829;DHT22;35723;51.194;5.112;2023-04-24T02:45:07;11.70;99.90
49829;DHT22;35723;51.194;5.112;2023-04-24T02:47:32;11.70;99.90
49829;DHT22;35723;51.194;5.112;2023-04-24T02:49:58;11.70;99.90
49829;DHT22;35723;51.194;5.112;2023-04-24T02:52:24;11.60;99.90
49829;DHT22;35723;51.194;5.112;2023-04-24T02:54:49;11.80;99.90
49829;DHT22;35723;51.194;5.112;2023-04-24T02:57:15;11.70;99.90
49829;DHT22;35723;51.194;5.112;2023-04-24T02:59:41;11.60;99.90
49829;DHT22;35723;51.194;5.112;2023-04-24T03:02:07;11.60;99.90
49829;DHT22;35723;51.194;5.112;2023-04-24T03:04:32;11.50;99.90
49829;DHT22;35723;51.194;5.112;2023-04-24T03:06:58;11.60;99.90
49829;DHT22;35723;51.194;5.112;2023-04-24T03:09:24;11.60;99.90
49829;DHT22;35723;51.194;5.112;2023-04-24T03:11:50;11.70;99.90
49829;DHT22;35723;51.194;5.112;2023-04-24T03:14:16;11.60;99.90
49829;DHT22;35723;51.194;5.112;2023-04-24T03:16:42;11.60;99.90
49829;DHT22;35723;51.194;5.112;2023-04-24T03:19:08;11.50;99.90
49829;DHT22;35723;51.194;5.112;2023-04-24T03:21:33;11.50;99.90
49829;DHT22;35723;51.194;5.112;2023-04-24T03:24:01;11.50;99.90
49829;DHT22;35723;51.194;5.112;2023-04-24T03:26:27;11.50;99.90
49829;DHT22;35723;51.194;5.112;2023-04-24T03:28:53;11.50;99.90
49829;DHT22;35723;51.194;5.112;2023-04-24T03:31:18;11.40;99.90
49829;DHT22;35723;51.194;5.112;2023-04-24T03:33:46;11.40;99.90
49829;DHT22;35723;51.194;5.112;2023-04-24T03:36:12;11.40;99.90
49829;DHT22;35723;51.194;5.112;2023-04-24T03:38:37;11.40;99.90
49829;DHT22;35723;51.194;5.112;2023-04-24T03:41:03;11.40;99.90
49829;DHT22;35723;51.194;5.112;2023-04-24T03:43:28;11.40;99.90
49829;DHT22;35723;51.194;5.112;2023-04-24T03:45:54;11.40;99.90
49829;DHT22;35723;51.194;5.112;2023-04-24T03:48:20;11.50;99.90
49829;DHT22;35723;51.194;5.112;2023-04-24T03:50:45;11.50;99.90
49829;DHT22;35723;51.194;5.112;2023-04-24T03:53:11;11.50;99.90
49829;DHT22;35723;51.194;5.112;2023-04-24T03:55:37;11.50;99.90
49829;DHT22;35723;51.194;5.112;2023-04-24T03:58:02;11.50;99.90
49829;DHT22;35723;51.194;5.112;2023-04-24T04:00:28;11.40;99.90
49829;DHT22;35723;51.194;5.112;2023-04-24T04:02:54;11.40;99.90
49829;DHT22;35723;51.194;5.112;2023-04-24T04:05:20;11.50;99.90
49829;DHT22;35723;51.194;5.112;2023-04-24T04:07:45;11.50;99.90
49829;DHT22;35723;51.194;5.112;2023-04-24T04:10:11;11.40;99.90
49829;DHT22;35723;51.194;5.112;2023-04-24T04:12:37;11.40;99.90
49829;DHT22;35723;51.194;5.112;2023-04-24T04:15:03;11.30;99.90
49829;DHT22;35723;51.194;5.112;2023-04-24T04:17:29;11.30;99.90
49829;DHT22;35723;51.194;5.112;2023-04-24T04:19:54;11.20;99.90
49829;DHT22;35723;51.194;5.112;2023-04-24T04:22:20;11.20;99.90
49829;DHT22;35723;51.194;5.112;2023-04-24T04:24:46;11.10;99.90
49829;DHT22;35723;51.194;5.112;2023-04-24T04:27:12;11.10;99.90
49829;DHT22;35723;51.194;5.112;2023-04-24T04:29:38;11.10;99.90
49829;DHT22;35723;51.194;5.112;2023-04-24T04:32:05;11.10;99.90
49829;DHT22;35723;51.194;5.112;2023-04-24T04:34:31;11.10;99.90
49829;DHT22;35723;51.194;5.112;2023-04-24T04:36:57;11.00;99.90
49829;DHT22;35723;51.194;5.112;2023-04-24T04:39:25;11.10;99.90
49829;DHT22;35723;51.194;5.112;2023-04-24T04:41:51;11.10;99.90
49829;DHT22;35723;51.194;5.112;2023-04-24T04:44:18;11.10;99.90
49829;DHT22;35723;51.194;5.112;2023-04-24T04:46:43;11.10;99.90
49829;DHT22;35723;51.194;5.112;2023-04-24T04:49:09;11.10;99.90
49829;DHT22;35723;51.194;5.112;2023-04-24T04:51:36;11.20;99.90
49829;DHT22;35723;51.194;5.112;2023-04-24T04:54:01;11.20;99.90
49829;DHT22;35723;51.194;5.112;2023-04-24T04:56:27;11.20;99.90
49829;DHT22;35723;51.194;5.112;2023-04-24T04:58:53;11.20;99.90
49829;DHT22;35723;51.194;5.112;2023-04-24T05:01:19;11.20;99.90
49829;DHT22;35723;51.194;5.112;2023-04-24T05:03:44;11.20;99.90
49829;DHT22;35723;51.194;5.112;2023-04-24T05:06:10;11.20;99.90
49829;DHT22;35723;51.194;5.112;2023-04-24T05:08:36;11.20;99.90
49829;DHT22;35723;51.194;5.112;2023-04-24T05:11:01;11.30;99.90
49829;DHT22;35723;51.194;5.112;2023-04-24T05:13:27;11.30;99.90
49829;DHT22;35723;51.194;5.112;2023-04-24T05:15:53;11.30;99.90
49829;DHT22;35723;51.194;5.112;2023-04-24T05:18:18;11.40;99.90
49829;DHT22;35723;51.194;5.112;2023-04-24T05:20:44;11.20;99.90
49829;DHT22;35723;51.194;5.112;2023-04-24T05:23:10;11.10;99.90
49829;DHT22;35723;51.194;5.112;2023-04-24T05:25:37;11.20;99.90
49829;DHT22;35723;51.194;5.112;2023-04-24T05:28:04;11.20;99.90
49829;DHT22;35723;51.194;5.112;2023-04-24T05:30:30;11.10;99.90
49829;DHT22;35723;51.194;5.112;2023-04-24T05:32:56;11.20;99.90
49829;DHT22;35723;51.194;5.112;2023-04-24T05:35:21;11.20;99.90
49829;DHT22;35723;51.194;5.112;2023-04-24T05:37:47;11.20;99.90
49829;DHT22;35723;51.194;5.112;2023-04-24T05:40:13;11.30;99.90
49829;DHT22;35723;51.194;5.112;2023-04-24T05:42:38;11.30;99.90
49829;DHT22;35723;51.194;5.112;2023-04-24T05:45:04;11.40;99.90
49829;DHT22;35723;51.194;5.112;2023-04-24T05:47:31;11.50;99.90
49829;DHT22;35723;51.194;5.112;2023-04-24T05:49:56;11.40;99.90
49829;DHT22;35723;51.194;5.112;2023-04-24T05:52:22;11.30;99.90
49829;DHT22;35723;51.194;5.112;2023-04-24T05:54:47;11.30;99.90
49829;DHT22;35723;51.194;5.112;2023-04-24T05:57:13;11.20;99.90
49829;DHT22;35723;51.194;5.112;2023-04-24T05:59:40;11.20;99.90
49829;DHT22;35723;51.194;5.112;2023-04-24T06:02:06;11.30;99.90
49829;DHT22;35723;51.194;5.112;2023-04-24T06:04:32;11.40;99.90
49829;DHT22;35723;51.194;5.112;2023-04-24T06:06:58;11.30;99.90
49829;DHT22;35723;51.194;5.112;2023-04-24T06:09:24;11.30;99.90
49829;DHT22;35723;51.194;5.112;2023-04-24T06:11:51;11.30;99.90
49829;DHT22;35723;51.194;5.112;2023-04-24T06:14:18;11.30;99.90
49829;DHT22;35723;51.194;5.112;2023-04-24T06:16:44;11.40;99.90
49829;DHT22;35723;51.194;5.112;2023-04-24T06:19:10;11.30;99.90
49829;DHT22;35723;51.194;5.112;2023-04-24T06:21:35;11.20;99.90
49829;DHT22;35723;51.194;5.112;2023-04-24T06:24:01;11.20;99.90
49829;DHT22;35723;51.194;5.112;2023-04-24T06:26:27;11.20;99.90
49829;DHT22;35723;51.194;5.112;2023-04-24T06:28:53;11.20;99.90
49829;DHT22;35723;51.194;5.112;2023-04-24T06:31:23;11.10;99.90
49829;DHT22;35723;51.194;5.112;2023-04-24T06:33:49;11.10;99.90
49829;DHT22;35723;51.194;5.112;2023-04-24T06:36:15;11.10;99.90
49829;DHT22;35723;51.194;5.112;2023-04-24T06:38:41;11.00;99.90
49829;DHT22;35723;51.194;5.112;2023-04-24T06:41:07;11.00;99.90
49829;DHT22;35723;51.194;5.112;2023-04-24T06:43:33;10.90;99.90
49829;DHT22;35723;51.194;5.112;2023-04-24T06:45:59;10.90;99.90
49829;DHT22;35723;51.194;5.112;2023-04-24T06:48:26;10.80;99.90
49829;DHT22;35723;51.194;5.112;2023-04-24T06:50:52;10.80;99.90
49829;DHT22;35723;51.194;5.112;2023-04-24T06:53:17;10.90;99.90
49829;DHT22;35723;51.194;5.112;2023-04-24T06:55:43;10.90;99.90
49829;DHT22;35723;51.194;5.112;2023-04-24T06:58:11;10.90;99.90
49829;DHT22;35723;51.194;5.112;2023-04-24T07:00:37;10.80;99.90
49829;DHT22;35723;51.194;5.112;2023-04-24T07:03:03;10.80;99.90
49829;DHT22;35723;51.194;5.112;2023-04-24T07:05:31;10.80;99.90
49829;DHT22;35723;51.194;5.112;2023-04-24T07:07:56;10.80;99.90
49829;DHT22;35723;51.194;5.112;2023-04-24T07:10:24;10.70;99.90
49829;DHT22;35723;51.194;5.112;2023-04-24T07:12:50;10.90;99.90
49829;DHT22;35723;51.194;5.112;2023-04-24T07:15:15;10.90;99.90
49829;DHT22;35723;51.194;5.112;2023-04-24T07:17:41;10.90;99.90
49829;DHT22;35723;51.194;5.112;2023-04-24T07:20:11;10.90;99.90
49829;DHT22;35723;51.194;5.112;2023-04-24T07:22:40;11.00;99.90
49829;DHT22;35723;51.194;5.112;2023-04-24T07:25:06;11.00;99.90
49829;DHT22;35723;51.194;5.112;2023-04-24T07:27:33;11.10;99.90
49829;DHT22;35723;51.194;5.112;2023-04-24T07:29:58;11.10;99.90
49829;DHT22;35723;51.194;5.112;2023-04-24T07:32:24;11.10;99.90
49829;DHT22;35723;51.194;5.112;2023-04-24T07:34:49;11.10;99.90
49829;DHT22;35723;51.194;5.112;2023-04-24T07:37:15;11.00;99.90
49829;DHT22;35723;51.194;5.112;2023-04-24T07:39:41;11.00;99.90
49829;DHT22;35723;51.194;5.112;2023-04-24T07:42:06;11.00;99.90
49829;DHT22;35723;51.194;5.112;2023-04-24T07:44:32;11.00;99.90
49829;DHT22;35723;51.194;5.112;2023-04-24T07:46:58;11.10;99.90
49829;DHT22;35723;51.194;5.112;2023-04-24T07:49:23;11.10;99.90
49829;DHT22;35723;51.194;5.112;2023-04-24T07:51:49;11.10;99.90
49829;DHT22;35723;51.194;5.112;2023-04-24T07:54:15;11.20;99.90
49829;DHT22;35723;51.194;5.112;2023-04-24T07:56:42;11.20;99.90
49829;DHT22;35723;51.194;5.112;2023-04-24T07:59:09;11.20;99.90
49829;DHT22;35723;51.194;5.112;2023-04-24T08:01:36;11.20;99.90
49829;DHT22;35723;51.194;5.112;2023-04-24T08:04:02;11.20;99.90
49829;DHT22;35723;51.194;5.112;2023-04-24T08:06:28;11.20;99.90
49829;DHT22;35723;51.194;5.112;2023-04-24T08:08:56;11.10;99.90
49829;DHT22;35723;51.194;5.112;2023-04-24T08:11:22;11.10;99.90
49829;DHT22;35723;51.194;5.112;2023-04-24T08:13:47;11.20;99.90
49829;DHT22;35723;51.194;5.112;2023-04-24T08:16:13;11.10;99.90
49829;DHT22;35723;51.194;5.112;2023-04-24T08:18:39;11.10;99.90
49829;DHT22;35723;51.194;5.112;2023-04-24T08:21:04;11.10;99.90
49829;DHT22;35723;51.194;5.112;2023-04-24T08:23:30;11.10;99.90
49829;DHT22;35723;51.194;5.112;2023-04-24T08:25:56;11.10;99.90
49829;DHT22;35723;51.194;5.112;2023-04-24T08:28:22;11.20;99.90
49829;DHT22;35723;51.194;5.112;2023-04-24T08:30:48;11.20;99.90
49829;DHT22;35723;51.194;5.112;2023-04-24T08:33:14;11.30;99.90
49829;DHT22;35723;51.194;5.112;2023-04-24T08:35:40;11.30;99.90
49829;DHT22;35723;51.194;5.112;2023-04-24T08:38:06;11.40;99.90
49829;DHT22;35723;51.194;5.112;2023-04-24T08:40:34;11.40;99.90
49829;DHT22;35723;51.194;5.112;2023-04-24T08:43:00;11.30;99.90
49829;DHT22;35723;51.194;5.112;2023-04-24T08:45:26;11.40;99.90
49829;DHT22;35723;51.194;5.112;2023-04-24T08:47:54;11.50;99.90
49829;DHT22;35723;51.194;5.112;2023-04-24T08:50:21;11.50;99.90
49829;DHT22;35723;51.194;5.112;2023-04-24T08:52:49;11.60;99.90
49829;DHT22;35723;51.194;5.112;2023-04-24T08:55:15;11.60;99.90
49829;DHT22;35723;51.194;5.112;2023-04-24T08:57:45;11.60;99.90
49829;DHT22;35723;51.194;5.112;2023-04-24T09:00:11;11.60;99.90
49829;DHT22;35723;51.194;5.112;2023-04-24T09:02:41;11.60;99.90
49829;DHT22;35723;51.194;5.112;2023-04-24T09:05:07;11.60;99.90
49829;DHT22;35723;51.194;5.112;2023-04-24T09:07:35;11.60;99.90
49829;DHT22;35723;51.194;5.112;2023-04-24T09:10:02;11.60;99.90
49829;DHT22;35723;51.194;5.112;2023-04-24T09:12:28;11.70;99.90
49829;DHT22;35723;51.194;5.112;2023-04-24T09:14:54;11.70;99.90
49829;DHT22;35723;51.194;5.112;2023-04-24T09:17:21;11.80;99.90
49829;DHT22;35723;51.194;5.112;2023-04-24T09:19:48;11.90;99.90
49829;DHT22;35723;51.194;5.112;2023-04-24T09:22:15;12.00;99.90
49829;DHT22;35723;51.194;5.112;2023-04-24T09:24:40;12.00;99.90
49829;DHT22;35723;51.194;5.112;2023-04-24T09:27:07;12.00;99.90
49829;DHT22;35723;51.194;5.112;2023-04-24T09:29:32;12.00;99.90
49829;DHT22;35723;51.194;5.112;2023-04-24T09:31:59;12.10;99.90
49829;DHT22;35723;51.194;5.112;2023-04-24T09:34:26;12.10;99.90
49829;DHT22;35723;51.194;5.112;2023-04-24T09:36:52;12.20;99.90
49829;DHT22;35723;51.194;5.112;2023-04-24T09:39:19;12.20;99.90
49829;DHT22;35723;51.194;5.112;2023-04-24T09:41:52;12.20;99.90
49829;DHT22;35723;51.194;5.112;2023-04-24T09:44:20;12.20;99.90
49829;DHT22;35723;51.194;5.112;2023-04-24T09:46:56;12.10;99.90
49829;DHT22;35723;51.194;5.112;2023-04-24T09:49:27;12.20;99.90
49829;DHT22;35723;51.194;5.112;2023-04-24T09:52:05;12.20;99.90
49829;DHT22;35723;51.194;5.112;2023-04-24T09:54:31;12.30;99.90
49829;DHT22;35723;51.194;5.112;2023-04-24T09:56:57;12.20;99.90
49829;DHT22;35723;51.194;5.112;2023-04-24T09:59:23;12.20;99.90
49829;DHT22;35723;51.194;5.112;2023-04-24T10:01:49;12.30;99.90
49829;DHT22;35723;51.194;5.112;2023-04-24T10:04:34;12.10;99.90
49829;DHT22;35723;51.194;5.112;2023-04-24T10:07:03;12.20;99.90
49829;DHT22;35723;51.194;5.112;2023-04-24T10:09:32;12.20;99.90
49829;DHT22;35723;51.194;5.112;2023-04-24T10:11:58;12.20;99.90
49829;DHT22;35723;51.194;5.112;2023-04-24T10:14:25;12.20;99.90
49829;DHT22;35723;51.194;5.112;2023-04-24T10:16:53;12.30;99.90
49829;DHT22;35723;51.194;5.112;2023-04-24T10:19:19;12.20;99.90
49829;DHT22;35723;51.194;5.112;2023-04-24T10:21:45;12.20;99.90
49829;DHT22;35723;51.194;5.112;2023-04-24T10:24:17;12.20;99.90
49829;DHT22;35723;51.194;5.112;2023-04-24T10:26:44;12.20;99.90
49829;DHT22;35723;51.194;5.112;2023-04-24T10:29:12;12.20;99.90
49829;DHT22;35723;51.194;5.112;2023-04-24T10:31:38;12.30;99.90
49829;DHT22;35723;51.194;5.112;2023-04-24T10:34:05;12.30;99.90
49829;DHT22;35723;51.194;5.112;2023-04-24T10:36:33;12.20;99.90
49829;DHT22;35723;51.194;5.112;2023-04-24T10:39:01;12.20;99.90
49829;DHT22;35723;51.194;5.112;2023-04-24T10:41:27;12.20;99.90
49829;DHT22;35723;51.194;5.112;2023-04-24T10:44:09;12.20;99.90
49829;DHT22;35723;51.194;5.112;2023-04-24T10:46:36;12.30;99.90
49829;DHT22;35723;51.194;5.112;2023-04-24T10:49:06;12.30;99.90
49829;DHT22;35723;51.194;5.112;2023-04-24T10:56:51;12.30;99.90
49829;DHT22;35723;51.194;5.112;2023-04-24T10:59:27;12.30;99.90
49829;DHT22;35723;51.194;5.112;2023-04-24T11:01:54;12.40;99.90
49829;DHT22;35723;51.194;5.112;2023-04-24T11:04:30;12.40;99.90
49829;DHT22;35723;51.194;5.112;2023-04-24T11:06:57;12.40;99.90
49829;DHT22;35723;51.194;5.112;2023-04-24T11:09:35;12.30;99.90
49829;DHT22;35723;51.194;5.112;2023-04-24T11:12:07;12.30;99.90
49829;DHT22;35723;51.194;5.112;2023-04-24T11:17:34;12.30;99.90
49829;DHT22;35723;51.194;5.112;2023-04-24T11:20:07;12.20;99.90
49829;DHT22;35723;51.194;5.112;2023-04-24T11:22:34;12.30;99.90
49829;DHT22;35723;51.194;5.112;2023-04-24T11:25:04;12.20;99.90
49829;DHT22;35723;51.194;5.112;2023-04-24T11:27:40;12.30;99.90
49829;DHT22;35723;51.194;5.112;2023-04-24T11:30:06;12.30;99.90
49829;DHT22;35723;51.194;5.112;2023-04-24T11:37:44;12.20;99.90
49829;DHT22;35723;51.194;5.112;2023-04-24T11:40:14;12.30;99.90
49829;DHT22;35723;51.194;5.112;2023-04-24T11:42:46;12.30;99.90
49829;DHT22;35723;51.194;5.112;2023-04-24T11:45:18;12.40;99.90
49829;DHT22;35723;51.194;5.112;2023-04-24T11:47:44;12.50;99.90
49829;DHT22;35723;51.194;5.112;2023-04-24T11:50:15;12.60;99.90
49829;DHT22;35723;51.194;5.112;2023-04-24T11:52:43;12.70;99.90
49829;DHT22;35723;51.194;5.112;2023-04-24T11:55:29;12.70;99.90
49829;DHT22;35723;51.194;5.112;2023-04-24T11:57:59;12.80;99.90
49829;DHT22;35723;51.194;5.112;2023-04-24T12:00:30;12.80;99.90
49829;DHT22;35723;51.194;5.112;2023-04-24T12:03:23;12.70;99.90
49829;DHT22;35723;51.194;5.112;2023-04-24T12:05:48;12.80;99.90
49829;DHT22;35723;51.194;5.112;2023-04-24T12:08:27;12.70;99.90
49829;DHT22;35723;51.194;5.112;2023-04-24T12:10:53;12.80;99.90
49829;DHT22;35723;51.194;5.112;2023-04-24T12:13:19;12.70;99.90
49829;DHT22;35723;51.194;5.112;2023-04-24T12:15:45;12.70;99.90
49829;DHT22;35723;51.194;5.112;2023-04-24T12:18:14;12.70;99.90
49829;DHT22;35723;51.194;5.112;2023-04-24T12:20:42;12.80;99.90
49829;DHT22;35723;51.194;5.112;2023-04-24T12:23:08;12.80;99.90
49829;DHT22;35723;51.194;5.112;2023-04-24T12:25:34;12.70;99.90
49829;DHT22;35723;51.194;5.112;2023-04-24T12:30:30;12.70;99.90
49829;DHT22;35723;51.194;5.112;2023-04-24T12:32:58;12.60;99.90
49829;DHT22;35723;51.194;5.112;2023-04-24T12:35:31;12.10;99.90
49829;DHT22;35723;51.194;5.112;2023-04-24T12:38:12;11.90;99.90
49829;DHT22;35723;51.194;5.112;2023-04-24T12:40:39;12.00;99.90
49829;DHT22;35723;51.194;5.112;2023-04-24T12:43:18;12.10;99.90
49829;DHT22;35723;51.194;5.112;2023-04-24T12:45:44;12.30;99.90
49829;DHT22;35723;51.194;5.112;2023-04-24T12:48:11;12.40;99.90
49829;DHT22;35723;51.194;5.112;2023-04-24T12:50:38;12.60;99.90
49829;DHT22;35723;51.194;5.112;2023-04-24T12:53:03;12.70;99.90
49829;DHT22;35723;51.194;5.112;2023-04-24T12:55:29;12.80;99.90
49829;DHT22;35723;51.194;5.112;2023-04-24T12:57:55;12.80;99.90
49829;DHT22;35723;51.194;5.112;2023-04-24T13:00:21;13.00;99.90
49829;DHT22;35723;51.194;5.112;2023-04-24T13:02:47;13.10;99.90
49829;DHT22;35723;51.194;5.112;2023-04-24T13:05:13;13.20;99.90
49829;DHT22;35723;51.194;5.112;2023-04-24T13:07:39;13.10;99.90
49829;DHT22;35723;51.194;5.112;2023-04-24T13:10:06;13.20;99.90
49829;DHT22;35723;51.194;5.112;2023-04-24T13:12:32;13.10;99.90
49829;DHT22;35723;51.194;5.112;2023-04-24T13:14:58;13.00;99.90
49829;DHT22;35723;51.194;5.112;2023-04-24T13:17:24;13.10;99.90
49829;DHT22;35723;51.194;5.112;2023-04-24T13:19:51;13.20;99.90
49829;DHT22;35723;51.194;5.112;2023-04-24T13:22:20;13.20;99.90
49829;DHT22;35723;51.194;5.112;2023-04-24T13:24:46;13.40;99.90
49829;DHT22;35723;51.194;5.112;2023-04-24T13:27:15;13.40;99.90
49829;DHT22;35723;51.194;5.112;2023-04-24T13:29:41;13.40;99.90
49829;DHT22;35723;51.194;5.112;2023-04-24T13:32:08;13.50;99.90
49829;DHT22;35723;51.194;5.112;2023-04-24T13:34:34;13.60;99.90
49829;DHT22;35723;51.194;5.112;2023-04-24T13:37:00;13.70;99.90
49829;DHT22;35723;51.194;5.112;2023-04-24T13:39:26;13.80;99.90
49829;DHT22;35723;51.194;5.112;2023-04-24T13:41:53;13.80;99.90
49829;DHT22;35723;51.194;5.112;2023-04-24T13:44:20;13.80;99.90
49829;DHT22;35723;51.194;5.112;2023-04-24T13:46:47;13.80;99.90
49829;DHT22;35723;51.194;5.112;2023-04-24T13:49:14;13.80;99.90
49829;DHT22;35723;51.194;5.112;2023-04-24T13:51:40;13.90;99.90
49829;DHT22;35723;51.194;5.112;2023-04-24T13:54:06;14.00;99.90
49829;DHT22;35723;51.194;5.112;2023-04-24T13:56:32;14.10;99.90
49829;DHT22;35723;51.194;5.112;2023-04-24T13:58:57;14.10;99.90
49829;DHT22;35723;51.194;5.112;2023-04-24T14:01:23;14.20;99.90
49829;DHT22;35723;51.194;5.112;2023-04-24T14:03:53;14.10;99.90
49829;DHT22;35723;51.194;5.112;2023-04-24T14:06:19;14.20;99.90
49829;DHT22;35723;51.194;5.112;2023-04-24T14:08:45;14.30;99.90
49829;DHT22;35723;51.194;5.112;2023-04-24T14:11:11;14.40;99.90
49829;DHT22;35723;51.194;5.112;2023-04-24T14:13:37;14.40;99.90
49829;DHT22;35723;51.194;5.112;2023-04-24T14:16:04;14.40;99.90
49829;DHT22;35723;51.194;5.112;2023-04-24T14:18:30;14.40;99.90
49829;DHT22;35723;51.194;5.112;2023-04-24T14:20:56;14.40;99.90
49829;DHT22;35723;51.194;5.112;2023-04-24T14:23:22;14.40;99.90
49829;DHT22;35723;51.194;5.112;2023-04-24T14:25:47;14.40;99.90
49829;DHT22;35723;51.194;5.112;2023-04-24T14:28:17;14.30;99.90
49829;DHT22;35723;51.194;5.112;2023-04-24T14:30:43;13.50;99.90
49829;DHT22;35723;51.194;5.112;2023-04-24T14:33:09;13.20;99.90
49829;DHT22;35723;51.194;5.112;2023-04-24T14:35:35;13.30;99.90
49829;DHT22;35723;51.194;5.112;2023-04-24T14:38:01;13.40;99.90
49829;DHT22;35723;51.194;5.112;2023-04-24T14:40:26;13.60;99.90
49829;DHT22;35723;51.194;5.112;2023-04-24T14:42:52;13.70;99.90
49829;DHT22;35723;51.194;5.112;2023-04-24T14:45:18;13.90;99.90
49829;DHT22;35723;51.194;5.112;2023-04-24T14:47:45;14.10;99.90
49829;DHT22;35723;51.194;5.112;2023-04-24T14:50:10;14.20;99.90
49829;DHT22;35723;51.194;5.112;2023-04-24T14:52:38;14.30;99.90
49829;DHT22;35723;51.194;5.112;2023-04-24T14:55:04;14.40;99.90
49829;DHT22;35723;51.194;5.112;2023-04-24T14:57:30;14.50;99.90
49829;DHT22;35723;51.194;5.112;2023-04-24T14:59:56;14.60;99.90
49829;DHT22;35723;51.194;5.112;2023-04-24T15:02:21;14.60;99.90
49829;DHT22;35723;51.194;5.112;2023-04-24T15:04:47;14.60;99.90
49829;DHT22;35723;51.194;5.112;2023-04-24T15:07:12;14.60;99.90
49829;DHT22;35723;51.194;5.112;2023-04-24T15:09:38;14.50;99.90
49829;DHT22;35723;51.194;5.112;2023-04-24T15:12:04;14.60;99.90
49829;DHT22;35723;51.194;5.112;2023-04-24T15:14:29;14.60;99.90
49829;DHT22;35723;51.194;5.112;2023-04-24T15:16:55;14.60;99.90
49829;DHT22;35723;51.194;5.112;2023-04-24T15:19:21;14.60;99.90
49829;DHT22;35723;51.194;5.112;2023-04-24T15:21:46;14.50;99.90
49829;DHT22;35723;51.194;5.112;2023-04-24T15:24:12;14.50;99.90
49829;DHT22;35723;51.194;5.112;2023-04-24T15:26:38;14.50;99.90
49829;DHT22;35723;51.194;5.112;2023-04-24T15:29:03;14.60;99.90
49829;DHT22;35723;51.194;5.112;2023-04-24T15:31:29;14.50;99.90
49829;DHT22;35723;51.194;5.112;2023-04-24T15:33:55;14.50;99.90
49829;DHT22;35723;51.194;5.112;2023-04-24T15:36:20;14.50;99.90
49829;DHT22;35723;51.194;5.112;2023-04-24T15:38:47;14.50;99.90
49829;DHT22;35723;51.194;5.112;2023-04-24T15:41:12;14.50;99.90
49829;DHT22;35723;51.194;5.112;2023-04-24T15:43:38;14.50;99.90